CheckWX is a tool to help pilots better visualize weather data.  It is not intended as a substitute for an official pre-flight weather briefing.

01:03:27 UTC

OENG TAF
Nejran Airport
Saudi Arabia
TAF OENG 232300Z 2400/2506 30006KT 9999 FEW040 BECMG 2407/2409 07008KT TEMPO 2412/2418 FEW025CB SCT030

Feb-24@
00:00 UTC

Feb-24 @ 00:00 UTC

Feb-24@
07:00 UTC

Feb-24 @ 07:00 UTC

TAF OENG 232300Z 2400/2506 30006KT 9999 FEW040
Wind
  • 300° at 6 KTS
Cloud Levels
  • Few at 4,000' AGL

Feb-24@
07:00 UTC

Feb-24 @ 07:00 UTC

Feb-25@
06:00 UTC

Feb-25 @ 06:00 UTC

BECMG 2407/2409 07008KT

Becoming

Becoming Conditions expected by Sun, Feb 24, 2019 @ 09:00 UTC

Wind
  • 070° at 8 KTS
Cloud Levels
  • Few at 4,000' AGL

Feb-24@
12:00 UTC

Feb-24 @ 12:00 UTC

Feb-24@
18:00 UTC

Feb-24 @ 18:00 UTC

TEMPO 2412/2418 FEW025CB SCT030

Temporary

Temporary Changes expected for less than half the time period

Cloud Levels
  • Few at 2,500' AGL
  • Scattered at 3,000' AGL